• Join FlightAware (Why Join?)
  • Login
  • US Flag 
08:16PM EDT


 

Airport Tracker/Info


-or-


 

Live Flight TrackerFlight Track Log ✈ SWA2624 ✈ 21-Apr-2013 ✈ KBWI - KABQ

Flight Track Log - Related Links

Times and Time Zones

All times are in EDT time to prevent confusion due to time zone crossing. See the SWA2624 flight status page for this flight to view local times or setup timezone preferences in your user account.

Time Position Orientation Groundspeed Altitude Reporting Facility
EDT Latitude Longitude Course Direction KTS MPH feet Rate Location/Type
06:41PM 39.1500 -76.6500 247° West 165 190 1,300  Level Potomac TRACON
06:42PM 39.1333 -76.7000 247° West 230 265 3,400 2,400 Climbing Potomac TRACON
06:43PM 39.1833 -76.7833 308° West 249 287 6,200 3,360 Climbing Potomac TRACON
06:44PM 39.2000 -76.8667 284° West 284 327 10,200 3,900 Climbing Potomac TRACON
06:45PM 39.2167 -76.9667 282° West 282 325 14,000 2,700 Climbing Potomac TRACON
06:47PM 39.1611 -77.2031 253° West 334 384 18,900 2,580 Climbing Washington Center
06:48PM 39.1056 -77.3008 234° Southwest 334 384 22,300 2,700 Climbing Washington Center
06:49PM 39.0725 -77.4231 251° West 348 400 24,400 2,160 Climbing Washington Center
06:50PM 39.0347 -77.5664 251° West 374 430 26,700 2,160 Climbing Washington Center
06:51PM 38.9972 -77.6989 250° West 396 456 28,800 2,160 Climbing Washington Center
06:52PM 38.9592 -77.8314 250° West 396 456 31,100 2,400 Climbing Washington Center
06:53PM 38.9256 -77.9611 252° West 396 456 33,600 2,040 Climbing Washington Center
06:54PM 38.8875 -78.0853 249° West 391 450 35,200 1,560 Climbing Washington Center
06:55PM 38.8558 -78.2094 252° West 380 437 36,800 1,380 Climbing Washington Center
06:56PM 38.8528 -78.3425 268° West 375 432 38,000 540 Climbing Washington Center
06:57PM 38.8517 -78.4786 269° West 375 432 38,000  Level Washington Center
06:58PM 38.8506 -78.6117 269° West 380 437 38,000  Level Washington Center
06:59PM 38.8492 -78.7478 269° West 380 437 38,000  Level Washington Center
07:00PM 38.8475 -78.8861 269° West 385 443 38,000  Level Washington Center
07:01PM 38.8458 -79.0167 269° West 385 443 38,000  Level Washington Center
07:02PM 38.8419 -79.1553 268° West 385 443 38,000  Level Washington Center
07:03PM 38.8419 -79.2936 270° West 385 443 38,000  Level Washington Center
07:04PM 38.8375 -79.4294 268° West 385 443 38,000  Level Washington Center
07:05PM 38.8353 -79.5653 269° West 385 443 38,000 60 Level Washington Center
07:06PM 38.8325 -79.7064 269° West 391 450 38,200 420 Climbing Washington Center
07:07PM 38.8283 -79.8314 268° West 396 456 38,900 660 Climbing Washington Center
07:08PM 38.8272 -79.9725 269° West 396 456 39,600 360 Climbing Washington Center
07:10PM 38.8161 -80.2406 267° West 406 467 40,000 120 Climbing Indianapolis Center
07:11PM 38.8122 -80.3847 268° West 405 466 40,000  Level Indianapolis Center
07:12PM 38.8072 -80.5583 268° West 406 467 40,000  Level Indianapolis Center
07:13PM 38.8028 -80.7028 268° West 405 466 40,000  Level Indianapolis Center
07:14PM 38.7989 -80.8472 268° West 406 467 40,000  Level Indianapolis Center
07:15PM 38.7939 -80.9911 267° West 405 466 40,000  Level Indianapolis Center
07:16PM 38.7889 -81.1356 268° West 406 467 40,000  Level Indianapolis Center
07:17PM 38.7839 -81.2789 267° West 405 466 40,000  Level Indianapolis Center
07:18PM 38.7783 -81.4297 267° West 404 465 40,000  Level Indianapolis Center
07:19PM 38.7728 -81.5989 268° West 407 468 40,000  Level Indianapolis Center
07:20PM 38.7669 -81.7292 267° West 403 464 40,000  Level Indianapolis Center
07:21PM 38.7614 -81.8719 267° West 404 465 40,000  Level Indianapolis Center
07:22PM 38.7542 -82.0453 267° West 405 466 40,000  Level Indianapolis Center
07:23PM 38.7492 -82.1889 267° West 405 466 40,000  Level Indianapolis Center
07:24PM 38.7428 -82.3333 267° West 406 467 40,000  Level Indianapolis Center
07:25PM 38.7375 -82.4778 267° West 406 467 40,000  Level Indianapolis Center
07:26PM 38.7314 -82.6225 267° West 406 467 40,000  Level Indianapolis Center
07:27PM 38.7256 -82.7672 267° West 407 468 40,000  Level Indianapolis Center
07:28PM 38.7189 -82.9133 267° West 411 473 40,000  Level Indianapolis Center
07:29PM 38.7128 -83.0586 267° West 407 468 40,000  Level Indianapolis Center
07:30PM 38.7044 -83.2228 266° West 408 470 40,000  Level Indianapolis Center
07:31PM 38.6983 -83.3681 267° West 406 467 40,000  Level Indianapolis Center
07:32PM 38.6908 -83.5131 266° West 405 466 40,000  Level Indianapolis Center
07:33PM 38.6844 -83.6572 267° West 404 465 40,000  Level Indianapolis Center
07:34PM 38.6764 -83.8019 266° West 403 464 40,000  Level Indianapolis Center
07:36PM 38.6683 -83.9697 267° West 402 463 40,000  Level Indianapolis Center
07:37PM 38.6594 -84.1153 266° West 404 465 40,000  Level Indianapolis Center
07:38PM 38.6517 -84.2600 266° West 404 465 40,000  Level Indianapolis Center
07:39PM 38.6542 -84.4072 271° West 406 467 40,000  Level Indianapolis Center
07:40PM 38.6619 -84.5517 274° West 406 467 40,000  Level Indianapolis Center
07:41PM 38.6719 -84.6978 275° West 410 472 40,000  Level Indianapolis Center
07:42PM 38.6797 -84.8453 274° West 415 478 40,000  Level Indianapolis Center
07:43PM 38.6883 -85.0017 274° West 412 474 40,000  Level Indianapolis Center
07:44PM 38.6936 -85.1481 273° West 411 473 40,000  Level Indianapolis Center
07:45PM 38.6864 -85.2942 266° West 409 471 40,000  Level Indianapolis Center
07:46PM 38.6803 -85.4397 267° West 410 472 40,000  Level Indianapolis Center
07:47PM 38.6744 -85.5842 267° West 408 470 40,000  Level Indianapolis Center
07:48PM 38.6683 -85.7572 267° West 405 466 40,000  Level Indianapolis Center
07:49PM 38.6625 -85.9014 267° West 404 465 40,000  Level Indianapolis Center
07:50PM 38.6567 -86.0467 267° West 409 471 40,000  Level Indianapolis Center
07:51PM 38.6511 -86.1903 267° West 405 466 40,000  Level Indianapolis Center
07:52PM 38.6439 -86.3364 266° West 410 472 40,000  Level Indianapolis Center
07:53PM 38.6375 -86.4817 267° West 410 472 40,000  Level Indianapolis Center
07:54PM 38.6300 -86.6256 266° West 408 470 40,000  Level Indianapolis Center
07:55PM 38.6239 -86.7700 267° West 409 471 40,000  Level Indianapolis Center
07:56PM 38.6150 -86.9431 266° West 408 470 40,000  Level Indianapolis Center
07:57PM 38.6075 -87.0867 266° West 410 472 40,000  Level Indianapolis Center
07:58PM 38.6003 -87.2297 266° West 408 470 40,000  Level Indianapolis Center
07:59PM 38.5931 -87.3739 266° West 407 468 40,000  Level Indianapolis Center
08:00PM 38.5844 -87.5167 266° West 405 466 40,000  Level Indianapolis Center
08:01PM 38.5764 -87.6603 266° West 406 467 40,000  Level Indianapolis Center
08:02PM 38.5681 -87.8061 266° West 409 471 40,000  Level Indianapolis Center
08:03PM 38.5597 -87.9497 266° West 408 470 40,000  Level Indianapolis Center
08:04PM 38.5553 -88.0097 265° West 412 474 40,000  Level Kansas City Center
08:05PM 38.5464 -88.1558 266° West 413 475 40,000  Level Kansas City Center
08:06PM 38.5381 -88.3025 266° West 413 475 40,000  Level Kansas City Center
08:07PM 38.5294 -88.4489 266° West 414 476 40,000  Level Kansas City Center
08:08PM 38.5200 -88.5953 265° West 414 476 40,000  Level Kansas City Center
08:09PM 38.5064 -88.7728 264° West 416 479 40,000  Level Kansas City Center
08:10PM 38.4972 -88.9153 265° West 406 467 40,000  Level Kansas City Center
08:11PM 38.4861 -89.0703 265° West 408 470 40,000  Level Kansas City Center
08:12PM 38.4772 -89.2108 265° West 399 459 40,000  Level Kansas City Center
08:13PM 38.4683 -89.3528 265° West 401 461 40,000  Level Kansas City Center
08:14PM 38.4567 -89.5058 264° West 403 464 40,000  Level Kansas City Center
08:15PM 38.4456 -89.6456 264° West 398 458 40,000  Level Kansas City Center
08:16PM 38.4369 -89.7844 266° West 391 450 40,000  Level Kansas City Center
08:17PM 38.4258 -89.9267 264° West 397 457 40,000  Level Kansas City Center
08:18PM 38.4139 -90.0675 264° West 399 459 40,000  Level Kansas City Center
08:19PM 38.4028 -90.2092 264° West 399 459 40,000  Level Kansas City Center
08:20PM 38.3897 -90.3739 264° West 402 463 40,000  Level Kansas City Center
08:21PM 38.3806 -90.4944 264° West 402 463 40,000  Level Kansas City Center
08:22PM 38.3681 -90.6369 264° West 402 463 40,000  Level Kansas City Center
08:23PM 38.3542 -90.8044 264° West 396 456 40,000  Level Kansas City Center
08:24PM 38.3419 -90.9478 264° West 405 466 40,000  Level Kansas City Center
08:25PM 38.3303 -91.0872 264° West 397 457 40,000  Level Kansas City Center
08:26PM 38.3183 -91.2300 264° West 403 464 40,000  Level Kansas City Center
08:27PM 38.3039 -91.3717 263° West 403 464 40,000  Level Kansas City Center
08:28PM 38.2936 -91.5142 265° West 408 470 40,000  Level Kansas City Center
08:29PM 38.2775 -91.6872 263° West 409 471 40,000  Level Kansas City Center
08:30PM 38.2639 -91.8306 263° West 407 468 40,000  Level Kansas City Center
08:31PM 38.2519 -91.9722 264° West 403 464 40,000  Level Kansas City Center
08:32PM 38.2381 -92.1125 263° West 401 461 40,000  Level Kansas City Center
08:33PM 38.2242 -92.2533 263° West 403 464 40,000  Level Kansas City Center
08:34PM 38.2133 -92.3650 263° West 403 464 40,000  Level Kansas City Center
08:36PM 38.1950 -92.5622 263° West 404 465 40,000  Level Kansas City Center
08:37PM 38.1822 -92.6800 262° West 403 464 40,000  Level Kansas City Center
08:38PM 38.1658 -92.8422 263° West 402 463 40,000  Level Kansas City Center
08:39PM 38.1511 -92.9814 262° West 399 459 40,000  Level Kansas City Center
08:40PM 38.1375 -93.1200 263° West 396 456 40,000  Level Kansas City Center
08:41PM 38.1225 -93.2572 262° West 392 451 40,000  Level Kansas City Center
08:42PM 38.1089 -93.3936 263° West 390 449 40,000  Level Kansas City Center
08:43PM 38.0917 -93.5622 263° West 397 457 40,000  Level Kansas City Center
08:44PM 38.0758 -93.7033 262° West 402 463 40,000  Level Kansas City Center
08:45PM 38.0600 -93.8444 262° West 403 464 40,000  Level Kansas City Center
08:46PM 38.0453 -93.9850 262° West 402 463 40,000  Level Kansas City Center
08:47PM 38.0283 -94.1336 262° West 405 466 40,000  Level Kansas City Center
08:48PM 38.0122 -94.2683 261° West 404 465 40,000  Level Kansas City Center
08:49PM 37.9944 -94.4247 262° West 402 463 40,000  Level Kansas City Center
08:50PM 37.9794 -94.5575 262° West 399 459 40,000  Level Kansas City Center
08:51PM 37.9606 -94.7114 261° West 397 457 40,000  Level Kansas City Center
08:52PM 37.9444 -94.8453 261° West 399 459 40,000  Level Kansas City Center
08:53PM 37.9286 -94.9761 261° West 396 456 40,000  Level Kansas City Center
08:54PM 37.9119 -95.1158 261° West 392 451 40,000  Level Kansas City Center
08:55PM 37.8956 -95.2533 261° West 394 453 40,000  Level Kansas City Center
08:56PM 37.8747 -95.4119 261° West 386 444 40,000  Level Kansas City Center
08:57PM 37.8583 -95.5497 261° West 391 450 40,000  Level Kansas City Center
08:58PM 37.8411 -95.6825 261° West 389 448 40,000  Level Kansas City Center
08:59PM 37.8236 -95.8217 261° West 395 455 40,000  Level Kansas City Center
09:00PM 37.8050 -95.9581 260° West 396 456 40,000  Level Kansas City Center
09:01PM 37.7886 -96.0928 261° West 391 450 40,000  Level Kansas City Center
09:02PM 37.7703 -96.2342 261° West 389 448 40,000  Level Kansas City Center
09:03PM 37.7522 -96.3708 261° West 393 452 40,000  Level Kansas City Center
09:04PM 37.7344 -96.5072 261° West 392 451 40,000  Level Kansas City Center
09:05PM 37.7156 -96.6447 260° West 397 457 40,000  Level Kansas City Center
09:06PM 37.6931 -96.8106 260° West 398 458 40,000  Level Kansas City Center
09:07PM 37.6739 -96.9494 260° West 402 463 40,000  Level Kansas City Center
09:08PM 37.6542 -97.0881 260° West 401 461 40,000  Level Kansas City Center
09:09PM 37.6347 -97.2275 260° West 402 463 40,000  Level Kansas City Center
09:11PM 37.6158 -97.3664 260° West 401 461 40,000  Level Kansas City Center
09:12PM 37.5953 -97.5053 259° West 402 463 40,000  Level Kansas City Center
09:13PM 37.5753 -97.6458 260° West 404 465 40,000  Level Kansas City Center
09:14PM 37.5553 -97.7853 260° West 402 463 40,000  Level Kansas City Center
09:15PM 37.5344 -97.9244 259° West 401 461 40,000  Level Kansas City Center
09:16PM 37.5139 -98.0642 260° West 401 461 40,000  Level Kansas City Center
09:17PM 37.4936 -98.2028 260° West 400 460 40,000  Level Kansas City Center
09:18PM 37.4681 -98.3653 259° West 395 455 40,000  Level Kansas City Center
09:19PM 37.4486 -98.4989 260° West 390 449 40,000  Level Kansas City Center
09:20PM 37.4272 -98.6325 259° West 389 448 40,000  Level Kansas City Center
09:21PM 37.4069 -98.7661 259° West 388 447 40,000  Level Kansas City Center
09:22PM 37.3867 -98.8989 259° West 387 445 40,000  Level Kansas City Center
09:23PM 37.3650 -99.0303 258° West 385 443 40,000  Level Kansas City Center
09:24PM 37.3444 -99.1625 259° West 386 444 40,000  Level Kansas City Center
09:25PM 37.3239 -99.2931 259° West 382 440 40,000  Level Kansas City Center
09:26PM 37.3000 -99.4428 259° West 381 438 40,000  Level Kansas City Center
09:27PM 37.2767 -99.5858 258° West 385 443 40,000  Level Kansas City Center
09:28PM 37.2564 -99.7128 259° West 387 445 40,000  Level Kansas City Center
09:29PM 37.2350 -99.8419 258° West 391 450 40,000  Level Kansas City Center
09:30PM 37.2103 -99.9914 258° West 393 452 40,000  Level Kansas City Center
09:31PM 37.1897 -100.1169 258° West 387 445 40,000  Level Kansas City Center
09:32PM 37.1653 -100.2639 258° West 385 443 40,000  Level Kansas City Center
09:33PM 37.1447 -100.3889 258° West 384 442 40,000  Level Kansas City Center
09:34PM 37.1200 -100.5317 258° West 378 435 40,000  Level Kansas City Center
09:35PM 37.0992 -100.6522 258° West 372 428 40,000  Level Kansas City Center
09:36PM 37.0783 -100.7728 258° West 370 426 40,000  Level Kansas City Center
09:37PM 37.0547 -100.9128 258° West 368 423 40,000  Level Kansas City Center
09:38PM 37.0275 -101.0331 254° West 372 428 40,000  Level Kansas City Center
09:39PM 36.9950 -101.1525 251° West 376 433 40,000  Level Kansas City Center
09:40PM 36.9564 -101.2911 251° West 377 434 40,000  Level Kansas City Center
09:41PM 36.9208 -101.4153 250° West 388 447 40,000  Level Kansas City Center
09:42PM 36.8800 -101.5614 251° West 397 457 40,000  Level Kansas City Center
09:43PM 36.8450 -101.6883 251° West 402 463 40,000  Level Kansas City Center
09:44PM 36.8083 -101.8178 251° West 409 471 40,000  Level Kansas City Center
09:45PM 36.7669 -101.9683 251° West 411 473 40,000  Level Kansas City Center
09:47PM 36.7247 -102.1139 250° West 401 461 40,000  Level Albuquerque Center
09:48PM 36.6897 -102.2400 251° West 399 459 40,000  Level Albuquerque Center
09:49PM 36.6531 -102.3672 250° West 394 453 40,000  Level Albuquerque Center
09:50PM 36.6083 -102.5203 250° West 394 453 40,000  Level Albuquerque Center
09:51PM 36.5711 -102.6500 250° West 398 458 40,000  Level Albuquerque Center
09:52PM 36.5333 -102.7772 250° West 396 456 40,000  Level Albuquerque Center
09:53PM 36.4978 -102.9031 251° West 394 453 40,000  Level Albuquerque Center
09:54PM 36.4619 -103.0294 251° West 388 447 40,000  Level Albuquerque Center
09:55PM 36.4244 -103.1528 249° West 382 440 40,000  Level Albuquerque Center
09:56PM 36.3886 -103.2772 250° West 380 437 40,000  Level Albuquerque Center
09:57PM 36.3519 -103.3994 250° West 377 434 40,000  Level Albuquerque Center
09:58PM 36.3081 -103.5428 249° West 378 435 40,000  Level Albuquerque Center
09:59PM 36.2717 -103.6653 250° West 377 434 40,000  Level Albuquerque Center
10:00PM 36.2344 -103.7897 250° West 381 438 40,000  Level Albuquerque Center
10:01PM 36.2033 -103.9142 253° West 377 434 40,000  Level Albuquerque Center
10:02PM 36.1736 -104.0364 253° West 372 428 40,000  Level Albuquerque Center
10:03PM 36.1450 -104.1544 253° West 362 417 40,000  Level Albuquerque Center
10:04PM 36.1139 -104.2739 252° West 363 418 40,000  Level Albuquerque Center
10:05PM 36.0853 -104.3922 253° West 360 414 40,000 -600 Level Albuquerque Center
10:06PM 36.0564 -104.5097 253° West 357 411 38,800 -1,800 Descending Albuquerque Center
10:07PM 36.0286 -104.6236 253° West 348 400 36,400 -1,680 Descending Albuquerque Center
10:08PM 35.9992 -104.7403 253° West 352 405 35,400 -1,440 Descending Albuquerque Center
10:09PM 35.9686 -104.8619 253° West 363 418 33,500 -1,860 Descending Albuquerque Center
10:10PM 35.9369 -104.9869 253° West 375 432 31,600 -1,680 Descending Albuquerque Center
10:11PM 35.9011 -105.1311 253° West 375 432 30,100 -1,260 Descending Albuquerque Center
10:12PM 35.8683 -105.2581 252° West 383 441 29,100 -1,020 Descending Albuquerque Center
10:13PM 35.8358 -105.3817 252° West 380 437 28,100 -600 Descending Albuquerque Center
10:14PM 35.8036 -105.5061 252° West 378 435 28,000 -60 Descending Albuquerque Center
10:15PM 35.7733 -105.6250 253° West 375 432 28,000  Level Albuquerque Center
10:16PM 35.7428 -105.7453 253° West 370 426 28,000  Level Albuquerque Center
10:17PM 35.7128 -105.8625 253° West 364 419 28,000 -420 Level Albuquerque Center
10:18PM 35.6831 -105.9786 253° West 358 412 27,200 -1,680 Descending Albuquerque Center
10:19PM 35.6542 -106.0883 252° West 344 396 24,700 -2,280 Descending Albuquerque Center
10:20PM 35.6303 -106.1992 255° West 338 389 22,600 -2,040 Descending Albuquerque Center
10:21PM 35.6217 -106.3169 265° West 335 386 20,600 -1,920 Descending Albuquerque Center
10:22PM 35.6106 -106.4197 262° West 320 368 18,700 -2,160 Descending Albuquerque Center
10:23PM 35.6028 -106.4831 261° West 313 360 17,600 -2,400 Descending Albuquerque Center
10:23PM 35.5961 -106.5461 263° West 314 361 16,300 -2,100 Descending Albuquerque Center
10:24PM 35.5586 -106.5967 228° Southwest 321 369 15,100 -1,920 Descending Albuquerque Center
10:24PM 35.5297 -106.6122 204° Southwest 321 369 14,400 -1,140 Descending Albuquerque Center
10:25PM 35.4803 -106.6378 203° Southwest 310 357 14,000 -900 Descending Albuquerque Center
10:25PM 35.4528 -106.6531 204° Southwest 307 353 13,500 -1,140 Descending Albuquerque Center
10:26PM 35.4083 -106.6772 204° Southwest 283 326 12,900 -1,320 Descending Albuquerque Center
10:26PM 35.3836 -106.6947 210° Southwest 286 329 12,200 -900 Descending Albuquerque Center
10:27PM 35.3408 -106.7181 204° Southwest 266 306 12,000 -240 Descending Albuquerque Center
10:27PM 35.3181 -106.7342 210° Southwest 270 311 12,000  Level Albuquerque Center
10:28PM 35.2792 -106.7575 206° Southwest 251 289 12,000  Level Albuquerque Center
10:28PM 35.2558 -106.7719 207° Southwest 256 295 12,000 -420 Level Albuquerque Center
10:29PM 35.2150 -106.7922 202° Southwest 249 287 11,600 -720 Descending Albuquerque Center
10:29PM 35.1889 -106.7892 175° South 255 293 11,300 -1,140 Descending Albuquerque Center
10:30PM 35.1453 -106.7839 174° South 226 260 10,500 -1,260 Descending Albuquerque Center
10:30PM 35.1253 -106.7756 161° South 235 270 10,000 -1,500 Descending Albuquerque Center
10:31PM 35.0947 -106.7633 162° South 217 250 9,200 -1,620 Descending Albuquerque Center
10:31PM 35.0658 -106.7508 160° South 226 260 8,400 -1,500 Descending Albuquerque Center
10:32PM 35.0442 -106.7294 141° Southeast 198 228 7,700 -1,320 Descending Albuquerque Center
10:32PM 35.0456 -106.7028 86° East 195 224 7,100 -1,440 Descending Albuquerque Center
10:33PM 35.0444 -106.6697 92° East 162 186 6,300 -1,320 Descending Albuquerque Center
10:33PM 35.0442 -106.6456 91° East 177 204 5,800 -660 Descending Albuquerque Center
10:35PM 35.0439 -106.5861 90° East 168 193 5,300 -540 Descending Albuquerque Center